< < Back
Terminal Aerodrome Forecast


Current Version              Previous Versions:   1  2  3  4  5  6  7  8  9  

Terminal Aerodrome Forecast

607
FTUS42 KCAE 222300
TAFCAE
TAF
KCAE 222333Z 2300/2324 35003KT P6SM SKC
     FM231700 30006KT P6SM SKC=

Latest METAR

610
SAUS80 KWBC 230000
MTRCAE
METAR KCAE 222356Z 34003KT 10SM CLR 16/07 A3005 RMK AO2 SLP173 T01610067
10211 20144 53009


USA.gov is the U.S. government's official web portal to all federal, state and local government web resources and services.